createdAt,value
2018-10-17T00:00:52.521Z,13.15
2018-10-17T00:01:52.474Z,13.88
2018-10-17T00:02:52.487Z,13.80
2018-10-17T00:03:52.468Z,13.49
2018-10-17T00:04:52.508Z,13.54
2018-10-17T00:05:52.466Z,14.28
2018-10-17T00:06:52.506Z,14.19
2018-10-17T00:07:52.485Z,14.04
2018-10-17T00:08:52.464Z,13.56
2018-10-17T00:09:52.477Z,12.87
2018-10-17T00:10:52.506Z,13.06
2018-10-17T00:11:52.460Z,13.11
2018-10-17T00:12:52.492Z,13.20
2018-10-17T00:13:52.452Z,13.38
2018-10-17T00:14:52.451Z,13.71
2018-10-17T00:15:52.438Z,13.67
2018-10-17T00:16:52.504Z,13.32
2018-10-17T00:17:52.447Z,13.07
2018-10-17T00:18:52.436Z,12.95
2018-10-17T00:19:52.430Z,12.95
2018-10-17T00:20:52.427Z,13.29
2018-10-17T00:21:52.429Z,13.49
2018-10-17T00:22:52.467Z,13.69
2018-10-17T00:23:52.442Z,13.79
2018-10-17T00:24:52.444Z,13.63
2018-10-17T00:25:52.424Z,13.73
2018-10-17T00:26:52.409Z,13.59
2018-10-17T00:27:52.404Z,13.32
2018-10-17T00:28:52.422Z,12.63
2018-10-17T00:29:52.416Z,12.30
2018-10-17T00:30:52.434Z,11.87
2018-10-17T00:31:52.399Z,11.82
2018-10-17T00:32:52.390Z,12.12
2018-10-17T00:33:52.388Z,12.52
2018-10-17T00:34:52.400Z,12.93
2018-10-17T00:35:52.391Z,13.12
2018-10-17T00:36:52.393Z,13.11
2018-10-17T00:37:52.377Z,13.37
2018-10-17T00:38:52.372Z,13.37
2018-10-17T00:39:52.383Z,13.29
2018-10-17T00:40:52.393Z,13.47
2018-10-17T00:41:52.372Z,13.14
2018-10-17T00:42:52.376Z,13.24
2018-10-17T00:43:52.387Z,13.61
2018-10-17T00:44:52.364Z,13.20
2018-10-17T00:45:52.355Z,13.22
2018-10-17T00:46:52.381Z,13.15
2018-10-17T00:47:52.351Z,12.96
2018-10-17T00:48:52.384Z,12.69
2018-10-17T00:49:52.341Z,12.70
2018-10-17T00:50:52.351Z,12.26
2018-10-17T00:51:52.334Z,12.01
2018-10-17T00:52:52.369Z,12.06
2018-10-17T00:53:52.334Z,12.12
2018-10-17T00:54:52.360Z,12.51
2018-10-17T00:55:52.330Z,12.04
2018-10-17T00:56:52.325Z,11.34
2018-10-17T00:57:52.365Z,11.19
2018-10-17T00:58:52.352Z,11.29
2018-10-17T00:59:52.308Z,11.53
2018-10-17T01:00:52.342Z,11.72
2018-10-17T01:01:52.324Z,11.97
2018-10-17T01:02:52.312Z,12.09
2018-10-17T01:03:52.293Z,12.19
2018-10-17T01:04:52.291Z,12.23
2018-10-17T01:05:52.328Z,12.41
2018-10-17T01:06:52.305Z,12.49
2018-10-17T01:07:52.284Z,12.84
2018-10-17T01:08:52.288Z,12.64
2018-10-17T01:09:52.276Z,12.57
2018-10-17T01:10:52.281Z,12.60
2018-10-17T01:11:52.278Z,12.56
2018-10-17T01:12:52.312Z,12.52
2018-10-17T01:13:52.261Z,12.63
2018-10-17T01:14:52.259Z,12.71
2018-10-17T01:15:52.265Z,12.88
2018-10-17T01:16:52.309Z,12.99
2018-10-17T01:17:52.251Z,12.67
2018-10-17T01:18:52.280Z,12.62
2018-10-17T01:19:52.246Z,12.46
2018-10-17T01:20:52.239Z,12.42
2018-10-17T01:21:52.246Z,12.38
2018-10-17T01:22:52.243Z,12.49
2018-10-17T01:23:52.233Z,12.64
2018-10-17T01:24:52.260Z,12.57
2018-10-17T01:25:52.245Z,12.82
2018-10-17T01:26:52.231Z,13.00
2018-10-17T01:27:52.220Z,12.70
2018-10-17T01:28:52.219Z,12.51
2018-10-17T01:29:52.258Z,12.63
2018-10-17T01:30:52.232Z,12.46
2018-10-17T01:31:52.224Z,12.51
2018-10-17T01:32:52.219Z,12.89
2018-10-17T01:33:52.205Z,12.75
2018-10-17T01:34:52.206Z,12.57
2018-10-17T01:35:52.199Z,12.57
2018-10-17T01:36:52.218Z,12.23
2018-10-17T01:37:52.225Z,12.54
2018-10-17T01:38:52.195Z,12.97
2018-10-17T01:39:52.184Z,12.97
2018-10-17T01:40:52.278Z,12.71
2018-10-17T01:41:52.227Z,12.52
2018-10-17T01:42:52.209Z,11.86
2018-10-17T01:43:52.172Z,11.85
2018-10-17T01:44:52.170Z,11.94
2018-10-17T01:45:52.167Z,12.11
2018-10-17T01:46:52.207Z,12.13
2018-10-17T01:47:52.177Z,12.29
2018-10-17T01:48:52.205Z,12.29
2018-10-17T01:49:52.164Z,12.39
2018-10-17T01:50:52.153Z,12.34
2018-10-17T01:51:52.157Z,12.42
2018-10-17T01:52:52.190Z,12.81
2018-10-17T01:53:52.136Z,12.77
2018-10-17T01:54:52.145Z,12.54
2018-10-17T01:55:52.127Z,12.60
2018-10-17T01:56:52.137Z,12.42
2018-10-17T01:57:52.141Z,12.21
2018-10-17T01:58:52.137Z,12.16
2018-10-17T01:59:52.145Z,12.12
2018-10-17T02:00:52.141Z,12.15
2018-10-17T02:01:52.131Z,11.99
2018-10-17T02:02:52.234Z,12.08
2018-10-17T02:03:52.138Z,12.20
2018-10-17T02:04:52.186Z,12.26
2018-10-17T02:05:52.107Z,12.29
2018-10-17T02:06:52.124Z,12.15
2018-10-17T02:07:52.095Z,12.16
2018-10-17T02:08:52.100Z,12.12
2018-10-17T02:09:52.091Z,12.08
2018-10-17T02:10:52.139Z,12.11
2018-10-17T02:11:52.103Z,12.15
2018-10-17T02:12:52.123Z,12.08
2018-10-17T02:13:52.074Z,12.11
2018-10-17T02:14:52.112Z,12.05
2018-10-17T02:15:52.083Z,12.12
2018-10-17T02:16:52.110Z,12.11
2018-10-17T02:17:52.081Z,12.23
2018-10-17T02:18:52.099Z,12.16
2018-10-17T02:19:52.077Z,12.13
2018-10-17T02:20:52.047Z,12.21
2018-10-17T02:21:52.065Z,12.38
2018-10-17T02:22:52.050Z,12.62
2018-10-17T02:23:52.035Z,12.63
2018-10-17T02:24:52.041Z,12.84
2018-10-17T02:25:52.049Z,12.42
2018-10-17T02:26:52.038Z,12.20
2018-10-17T02:27:52.030Z,12.59
2018-10-17T02:28:52.077Z,12.75
2018-10-17T02:29:52.041Z,12.56
2018-10-17T02:30:52.020Z,12.12
2018-10-17T02:31:52.064Z,12.16
2018-10-17T02:32:52.009Z,12.13
2018-10-17T02:33:52.071Z,12.13
2018-10-17T02:34:52.062Z,12.12
2018-10-17T02:35:52.018Z,11.99
2018-10-17T02:36:52.029Z,12.01
2018-10-17T02:37:51.995Z,12.11
2018-10-17T02:38:51.978Z,12.01
2018-10-17T02:39:52.012Z,11.96
2018-10-17T02:40:52.039Z,12.01
2018-10-17T02:41:51.971Z,11.97
2018-10-17T02:42:51.978Z,12.13
2018-10-17T02:43:51.977Z,12.15
2018-10-17T02:44:51.967Z,12.20
2018-10-17T02:45:51.957Z,11.80
2018-10-17T02:46:51.965Z,11.87
2018-10-17T02:47:51.969Z,11.93
2018-10-17T02:48:51.978Z,11.25
2018-10-17T02:49:51.941Z,10.62
2018-10-17T02:50:51.943Z,10.80
2018-10-17T02:51:51.948Z,11.31
2018-10-17T02:52:51.953Z,11.46
2018-10-17T02:53:51.927Z,11.64
2018-10-17T02:54:51.925Z,11.52
2018-10-17T02:55:51.937Z,11.50
2018-10-17T03:14:57.643Z,10.74
2018-10-17T03:15:57.586Z,10.37
2018-10-17T03:16:57.615Z,10.07
2018-10-17T03:17:57.596Z,10.00
2018-10-17T03:18:57.618Z,10.15
2018-10-17T03:19:57.576Z,10.37
2018-10-17T03:20:57.559Z,10.25
2018-10-17T03:21:57.550Z,10.42
2018-10-17T03:22:57.614Z,10.91
2018-10-17T03:23:57.537Z,11.02
2018-10-17T03:24:57.594Z,10.81
2018-10-17T03:25:57.548Z,10.40
2018-10-17T03:26:57.522Z,10.14
2018-10-17T03:27:57.547Z,9.99
2018-10-17T03:28:57.552Z,10.28
2018-10-17T03:29:57.502Z,10.76
2018-10-17T03:30:57.520Z,10.96
2018-10-17T03:31:57.496Z,11.24
2018-10-17T03:32:57.493Z,11.57
2018-10-17T03:33:57.503Z,11.67
2018-10-17T03:34:57.505Z,11.78
2018-10-17T03:35:57.533Z,11.72
2018-10-17T03:36:57.503Z,11.83
2018-10-17T03:37:57.473Z,10.98
2018-10-17T03:38:57.464Z,10.44
2018-10-17T03:39:57.469Z,10.25
2018-10-17T03:40:57.461Z,9.89
2018-10-17T03:41:57.452Z,9.67
2018-10-17T03:42:57.467Z,9.63
2018-10-17T03:43:57.444Z,9.40
2018-10-17T03:44:57.441Z,9.45
2018-10-17T03:45:57.438Z,9.50
2018-10-17T03:46:57.436Z,9.52
2018-10-17T03:47:57.425Z,9.96
2018-10-17T03:48:57.483Z,10.37
2018-10-17T03:49:57.466Z,10.66
2018-10-17T03:50:57.425Z,10.66
2018-10-17T03:51:57.418Z,10.89
2018-10-17T03:52:57.436Z,10.86
2018-10-17T03:53:57.397Z,10.73
2018-10-17T03:54:57.415Z,10.86
2018-10-17T03:55:57.395Z,11.01
2018-10-17T03:56:57.385Z,11.07
2018-10-17T03:57:57.388Z,11.38
2018-10-17T03:58:57.404Z,11.78
2018-10-17T03:59:57.380Z,12.20
2018-10-17T04:00:57.426Z,11.97
2018-10-17T04:01:57.412Z,11.87
2018-10-17T04:02:57.425Z,11.97
2018-10-17T04:03:57.354Z,11.94
2018-10-17T04:04:57.413Z,11.65
2018-10-17T04:05:57.355Z,11.38
2018-10-17T04:06:57.401Z,11.28
2018-10-17T04:07:57.344Z,11.24
2018-10-17T04:08:57.352Z,11.14
2018-10-17T04:09:57.333Z,11.27
2018-10-17T04:10:57.325Z,11.24
2018-10-17T04:11:57.328Z,11.16
2018-10-17T04:12:57.336Z,11.11
2018-10-17T04:13:57.318Z,11.01
2018-10-17T04:14:57.307Z,11.24
2018-10-17T04:15:57.334Z,11.13
2018-10-17T04:16:57.330Z,10.94
2018-10-17T04:17:57.303Z,10.88
2018-10-17T04:18:57.294Z,10.81
2018-10-17T04:19:57.287Z,10.81
2018-10-17T04:20:57.286Z,10.84
2018-10-17T04:21:57.318Z,10.30
2018-10-17T04:22:57.314Z,10.39
2018-10-17T04:23:57.405Z,10.42
2018-10-17T04:24:57.309Z,10.83
2018-10-17T04:25:57.272Z,10.86
2018-10-17T04:26:57.262Z,10.71
2018-10-17T04:27:57.257Z,10.78
2018-10-17T04:28:57.297Z,10.74
2018-10-17T04:29:57.270Z,10.94
2018-10-17T04:30:57.249Z,11.64
2018-10-17T04:31:57.252Z,11.77
2018-10-17T04:33:05.883Z,11.43
2018-10-17T04:34:50.661Z,10.94
2018-10-17T04:35:50.669Z,11.03
2018-10-17T04:36:50.643Z,11.07
2018-10-17T04:37:50.640Z,10.96
2018-10-17T04:38:50.642Z,10.96
2018-10-17T04:39:50.622Z,10.94
2018-10-17T04:40:50.629Z,11.01
2018-10-17T04:41:50.615Z,10.88
2018-10-17T04:42:50.607Z,10.71
2018-10-17T04:43:50.615Z,10.78
2018-10-17T04:44:50.604Z,10.83
2018-10-17T04:45:50.606Z,10.68
2018-10-17T04:46:50.596Z,10.10
2018-10-17T04:47:50.598Z,9.46
2018-10-17T04:48:50.591Z,9.25
2018-10-17T04:49:50.579Z,9.28
2018-10-17T04:50:50.575Z,9.31
2018-10-17T04:51:50.584Z,9.28
2018-10-17T04:52:50.719Z,9.39
2018-10-17T04:53:50.573Z,9.24
2018-10-17T04:54:50.561Z,9.25
2018-10-17T04:55:50.593Z,9.10
2018-10-17T04:56:50.551Z,9.31
2018-10-17T04:57:50.568Z,9.60
2018-10-17T04:58:50.536Z,9.45
2018-10-17T04:59:50.581Z,9.43
2018-10-17T05:00:50.550Z,9.52
2018-10-17T05:01:50.565Z,9.67
2018-10-17T05:02:50.527Z,10.06
2018-10-17T05:03:50.547Z,10.21
2018-10-17T05:04:50.578Z,10.21
2018-10-17T05:05:50.571Z,10.43
2018-10-17T05:06:50.554Z,10.40
2018-10-17T05:07:50.500Z,10.42
2018-10-17T05:08:50.501Z,10.39
2018-10-17T05:09:50.492Z,10.33
2018-10-17T05:10:50.490Z,10.39
2018-10-17T05:11:50.495Z,10.66
2018-10-17T05:12:50.480Z,10.86
2018-10-17T05:13:50.472Z,11.19
2018-10-17T05:14:50.478Z,11.36
2018-10-17T05:15:50.460Z,10.98
2018-10-17T05:16:50.521Z,10.63
2018-10-17T05:17:50.455Z,10.06
2018-10-17T05:18:50.534Z,10.10
2018-10-17T05:19:50.515Z,10.28
2018-10-17T05:20:50.467Z,10.47
2018-10-17T05:21:50.485Z,10.62
2018-10-17T05:22:50.430Z,10.33
2018-10-17T05:23:50.477Z,10.26
2018-10-17T05:24:50.467Z,10.43
2018-10-17T05:25:50.427Z,10.09
2018-10-17T05:26:50.433Z,9.68
2018-10-17T05:27:50.459Z,9.38
2018-10-17T05:28:50.419Z,9.85
2018-10-17T05:29:50.478Z,9.91
2018-10-17T05:30:50.445Z,9.94
2018-10-17T05:31:50.411Z,10.19
2018-10-17T05:32:50.413Z,10.36
2018-10-17T05:33:50.378Z,10.26
2018-10-17T05:34:50.378Z,10.22
2018-10-17T05:35:50.367Z,10.95
2018-10-17T05:36:50.375Z,11.34
2018-10-17T05:37:50.558Z,11.28
2018-10-17T05:38:50.379Z,10.80
2018-10-17T05:39:50.403Z,10.60
2018-10-17T05:40:50.402Z,10.81
2018-10-17T05:41:50.397Z,11.20
2018-10-17T05:42:50.341Z,11.20
2018-10-17T05:43:50.390Z,10.94
2018-10-17T05:44:50.335Z,10.65
2018-10-17T05:45:50.348Z,10.59
2018-10-17T05:46:50.324Z,10.53
2018-10-17T05:47:50.363Z,10.44
2018-10-17T05:48:50.365Z,10.43
2018-10-17T05:49:50.329Z,10.36
2018-10-17T05:50:50.341Z,10.30
2018-10-17T05:51:50.349Z,10.40
2018-10-17T05:52:50.294Z,10.39
2018-10-17T05:53:50.289Z,10.42
2018-10-17T05:54:50.284Z,10.37
2018-10-17T05:55:50.312Z,10.12
2018-10-17T05:56:50.301Z,10.30
2018-10-17T05:57:50.293Z,10.30
2018-10-17T05:58:50.294Z,10.32
2018-10-17T05:59:50.297Z,10.32
2018-10-17T06:00:50.312Z,10.28
2018-10-17T06:01:50.315Z,10.28
2018-10-17T06:02:50.302Z,10.37
2018-10-17T06:03:50.280Z,10.37
2018-10-17T06:04:50.291Z,10.33
2018-10-17T06:05:50.264Z,10.44
2018-10-17T06:06:50.283Z,10.34
2018-10-17T06:07:50.230Z,9.76
2018-10-17T06:08:50.268Z,10.53
2018-10-17T06:09:50.213Z,10.44
2018-10-17T06:10:50.215Z,10.32
2018-10-17T06:11:50.209Z,10.37
2018-10-17T06:12:50.202Z,10.73
2018-10-17T06:13:50.204Z,10.55
2018-10-17T06:14:50.204Z,10.78
2018-10-17T06:15:50.197Z,11.01
2018-10-17T06:16:50.238Z,10.76
2018-10-17T06:17:50.189Z,10.63
2018-10-17T06:18:50.180Z,10.66
2018-10-17T06:19:50.173Z,10.47
2018-10-17T06:20:50.171Z,10.37
2018-10-17T06:21:50.154Z,10.37
2018-10-17T06:22:50.159Z,10.32
2018-10-17T06:23:50.170Z,10.37
2018-10-17T06:24:50.169Z,10.37
2018-10-17T06:25:50.169Z,10.68
2018-10-17T06:26:50.133Z,10.66
2018-10-17T06:27:50.132Z,10.30
2018-10-17T06:28:50.147Z,10.32
2018-10-17T06:29:50.122Z,10.73
2018-10-17T06:30:50.165Z,10.70
2018-10-17T06:31:50.125Z,10.83
2018-10-17T06:32:50.125Z,11.03
2018-10-17T06:33:50.143Z,10.66
2018-10-17T06:34:50.164Z,10.65
2018-10-17T06:35:50.131Z,10.52
2018-10-17T06:36:50.107Z,10.40
2018-10-17T06:37:50.155Z,10.53
2018-10-17T06:38:50.101Z,10.32
2018-10-17T06:39:50.157Z,10.25
2018-10-17T06:40:50.124Z,10.07
2018-10-17T06:41:50.088Z,9.82
2018-10-17T06:42:50.105Z,9.86
2018-10-17T06:43:50.228Z,9.99
2018-10-17T06:44:50.195Z,10.19
2018-10-17T06:45:50.050Z,10.30
2018-10-17T06:46:50.066Z,10.30
2018-10-17T06:47:50.075Z,10.46
2018-10-17T06:48:50.057Z,10.63
2018-10-17T06:49:50.055Z,10.76
2018-10-17T06:50:50.064Z,10.81
2018-10-17T06:51:50.059Z,10.58
2018-10-17T06:52:50.025Z,10.42
2018-10-17T06:53:50.048Z,10.34
2018-10-17T06:54:50.012Z,10.34
2018-10-17T06:55:50.010Z,10.47
2018-10-17T06:56:50.010Z,10.74
2018-10-17T06:57:49.994Z,10.86
2018-10-17T06:58:50.053Z,10.86
2018-10-17T06:59:50.017Z,10.83
2018-10-17T07:00:50.009Z,10.96
2018-10-17T07:01:50.107Z,11.06
2018-10-17T07:02:50.038Z,11.19
2018-10-17T07:03:49.973Z,11.25
2018-10-17T07:04:49.979Z,11.13
2018-10-17T07:05:50.058Z,10.98
2018-10-17T07:06:49.960Z,10.68
2018-10-17T07:07:50.047Z,10.88
2018-10-17T07:08:49.969Z,10.88
2018-10-17T07:09:49.974Z,10.86
2018-10-17T07:10:49.959Z,11.25
2018-10-17T07:11:49.962Z,11.31
2018-10-17T07:12:49.959Z,11.49
2018-10-17T07:13:49.930Z,11.34
2018-10-17T07:14:49.956Z,11.31
2018-10-17T07:15:50.057Z,11.25
2018-10-17T07:16:49.923Z,11.21
2018-10-17T07:17:50.018Z,11.64
2018-10-17T07:18:49.928Z,11.34
2018-10-17T07:19:49.924Z,11.34
2018-10-17T07:20:49.926Z,11.32
2018-10-17T07:21:49.945Z,11.54
2018-10-17T07:22:49.910Z,11.57
2018-10-17T07:23:49.902Z,11.78
2018-10-17T07:24:49.919Z,11.68
2018-10-17T07:25:49.879Z,11.93
2018-10-17T07:26:49.893Z,11.94
2018-10-17T07:27:49.887Z,11.78
2018-10-17T07:28:50.028Z,11.78
2018-10-17T07:29:49.992Z,11.54
2018-10-17T07:30:49.886Z,11.47
2018-10-17T07:31:49.850Z,11.41
2018-10-17T07:32:49.848Z,11.70
2018-10-17T07:33:49.851Z,11.83
2018-10-17T07:34:49.849Z,11.97
2018-10-17T07:35:49.862Z,11.90
2018-10-17T07:36:49.846Z,11.87
2018-10-17T07:37:49.846Z,11.70
2018-10-17T07:38:49.903Z,11.61
2018-10-17T07:39:49.823Z,11.93
2018-10-17T07:40:49.819Z,12.06
2018-10-17T07:41:49.816Z,11.85
2018-10-17T07:42:49.810Z,11.89
2018-10-17T07:43:49.892Z,12.15
2018-10-17T07:44:49.799Z,12.16
2018-10-17T07:45:49.806Z,12.37
2018-10-17T07:46:49.810Z,12.13
2018-10-17T07:47:49.830Z,12.11
2018-10-17T07:48:49.824Z,11.99
2018-10-17T07:49:49.797Z,12.05
2018-10-17T07:50:49.779Z,12.08
2018-10-17T07:51:49.781Z,12.19
2018-10-17T07:52:49.801Z,12.21
2018-10-17T07:53:49.806Z,12.33
2018-10-17T07:54:49.769Z,12.29
2018-10-17T07:55:49.816Z,12.21
2018-10-17T07:56:49.774Z,12.41
2018-10-17T07:57:49.782Z,12.44
2018-10-17T07:58:49.799Z,12.44
2018-10-17T07:59:49.849Z,12.38
2018-10-17T08:00:49.794Z,12.48
2018-10-17T08:01:49.735Z,12.54
2018-10-17T08:02:49.746Z,12.60
2018-10-17T08:03:49.749Z,12.69
2018-10-17T08:04:49.752Z,12.69
2018-10-17T08:05:49.765Z,12.81
2018-10-17T08:06:49.813Z,12.84
2018-10-17T08:07:49.772Z,12.84
2018-10-17T08:08:49.721Z,12.82
2018-10-17T08:09:49.717Z,12.71
2018-10-17T08:10:49.708Z,12.85
2018-10-17T08:11:49.713Z,12.92
2018-10-17T08:12:49.736Z,13.07
2018-10-17T08:13:49.716Z,12.96
2018-10-17T08:14:49.695Z,13.03
2018-10-17T08:15:50.262Z,13.02
2018-10-17T08:16:49.711Z,13.11
2018-10-17T08:17:49.721Z,13.06
2018-10-17T08:18:49.715Z,13.21
2018-10-17T08:19:49.678Z,13.21
2018-10-17T08:20:49.720Z,13.24
2018-10-17T08:21:49.703Z,13.29
2018-10-17T08:22:49.675Z,13.38
2018-10-17T08:23:49.698Z,13.37
2018-10-17T08:24:49.666Z,13.36
2018-10-17T08:25:49.672Z,13.44
2018-10-17T08:26:49.675Z,13.52
2018-10-17T08:27:49.687Z,13.65
2018-10-17T08:28:49.673Z,13.63
2018-10-17T08:29:49.694Z,13.61
2018-10-17T08:30:49.660Z,13.80
2018-10-17T08:31:49.644Z,13.65
2018-10-17T08:32:49.665Z,13.70
2018-10-17T08:33:49.635Z,13.84
2018-10-17T08:34:49.632Z,13.79
2018-10-17T08:35:49.770Z,13.79
2018-10-17T08:36:49.846Z,13.84
2018-10-17T08:37:50.222Z,13.98
2018-10-17T08:38:49.621Z,13.92
2018-10-17T08:39:49.611Z,13.98
2018-10-17T08:40:49.653Z,13.96
2018-10-17T08:41:49.609Z,13.94
2018-10-17T08:42:49.663Z,14.12
2018-10-17T08:43:49.602Z,14.04
2018-10-17T08:44:49.608Z,13.99
2018-10-17T08:45:49.612Z,14.01
2018-10-17T08:46:49.605Z,14.09
2018-10-17T08:47:49.612Z,14.27
2018-10-17T08:48:49.605Z,14.21
2018-10-17T08:49:49.588Z,14.14
2018-10-17T08:50:49.723Z,14.13
2018-10-17T08:51:49.597Z,14.20
2018-10-17T08:52:49.598Z,14.27
2018-10-17T08:53:49.656Z,14.34
2018-10-17T08:54:49.624Z,14.31
2018-10-17T08:55:49.574Z,14.57
2018-10-17T08:56:49.621Z,14.72
2018-10-17T08:57:49.709Z,14.81
2018-10-17T08:58:49.613Z,14.69
2018-10-17T08:59:49.557Z,14.81
2018-10-17T09:00:49.613Z,14.83
2018-10-17T09:01:49.554Z,14.72
2018-10-17T09:02:49.630Z,14.75
2018-10-17T09:03:49.563Z,14.78
2018-10-17T09:04:49.576Z,14.91
2018-10-17T09:05:49.548Z,14.93
2018-10-17T09:06:49.550Z,14.93
2018-10-17T09:07:49.670Z,14.98
2018-10-17T09:08:49.545Z,14.91
2018-10-17T09:09:49.549Z,14.98
2018-10-17T09:10:49.553Z,14.90
2018-10-17T09:11:49.534Z,14.91
2018-10-17T09:12:49.535Z,15.13
2018-10-17T09:13:49.526Z,15.26
2018-10-17T09:14:49.544Z,15.33
2018-10-17T09:15:49.556Z,15.20
2018-10-17T09:16:49.614Z,15.27
2018-10-17T09:17:49.514Z,15.30
2018-10-17T09:18:49.522Z,15.45
2018-10-17T09:19:49.651Z,15.57
2018-10-17T09:20:49.783Z,15.61
2018-10-17T09:21:49.818Z,15.51
2018-10-17T09:22:49.530Z,15.45
2018-10-17T09:23:49.509Z,15.59
2018-10-17T09:24:49.512Z,15.51
2018-10-17T09:25:49.523Z,15.48
2018-10-17T09:26:49.501Z,15.36
2018-10-17T09:27:49.534Z,15.51
2018-10-17T09:28:49.493Z,15.68
2018-10-17T09:29:49.511Z,15.60
2018-10-17T09:30:49.532Z,15.97
2018-10-17T09:31:49.536Z,15.86
2018-10-17T09:32:49.530Z,15.93
2018-10-17T09:33:49.490Z,16.12
2018-10-17T09:34:49.485Z,15.82
2018-10-17T09:35:49.605Z,15.88
2018-10-17T09:36:49.486Z,15.67
2018-10-17T09:37:49.516Z,15.85
2018-10-17T09:38:49.497Z,16.15
2018-10-17T09:39:49.477Z,16.23
2018-10-17T09:40:49.497Z,16.26
2018-10-17T09:41:49.508Z,16.22
2018-10-17T09:42:58.213Z,16.30
2018-10-17T09:44:42.912Z,16.40
2018-10-17T09:45:42.884Z,16.37
2018-10-17T09:46:42.923Z,16.45
2018-10-17T09:47:42.892Z,16.73
2018-10-17T09:48:42.901Z,16.56
2018-10-17T09:49:42.881Z,16.59
2018-10-17T09:50:42.880Z,16.58
2018-10-17T09:51:42.892Z,16.56
2018-10-17T09:52:42.890Z,16.50
2018-10-17T09:53:42.889Z,16.50
2018-10-17T09:54:42.896Z,16.31
2018-10-17T09:55:42.897Z,16.52
2018-10-17T09:56:42.871Z,16.90
2018-10-17T09:57:42.871Z,16.99
2018-10-17T09:58:42.869Z,17.04
2018-10-17T09:59:42.886Z,17.06
2018-10-17T10:00:42.867Z,16.90
2018-10-17T10:01:42.887Z,16.89
2018-10-17T10:02:42.862Z,16.80
2018-10-17T10:03:43.094Z,16.98
2018-10-17T10:04:42.874Z,16.95
2018-10-17T10:05:42.871Z,17.18
2018-10-17T10:06:42.861Z,17.10
2018-10-17T10:07:42.881Z,17.14
2018-10-17T10:08:42.883Z,17.14
2018-10-17T10:09:42.859Z,17.07
2018-10-17T10:10:42.860Z,17.03
2018-10-17T10:11:42.879Z,16.89
2018-10-17T10:12:42.868Z,16.88
2018-10-17T10:13:42.856Z,16.92
2018-10-17T10:14:42.882Z,16.85
2018-10-17T10:15:42.849Z,17.25
2018-10-17T10:16:42.856Z,17.43
2018-10-17T10:17:42.930Z,17.35
2018-10-17T10:18:42.870Z,17.28
2018-10-17T10:19:42.850Z,17.22
2018-10-17T10:20:42.929Z,17.28
2018-10-17T10:21:42.843Z,17.55
2018-10-17T10:22:42.891Z,17.57
2018-10-17T10:23:42.928Z,17.44
2018-10-17T10:24:42.914Z,17.46
2018-10-17T10:25:42.846Z,17.26
2018-10-17T10:26:42.945Z,17.38
2018-10-17T10:27:42.844Z,17.46
2018-10-17T10:28:43.088Z,17.79
2018-10-17T10:29:42.940Z,17.76
2018-10-17T10:30:42.848Z,17.84
2018-10-17T10:31:42.860Z,17.85
2018-10-17T10:32:42.996Z,17.53
2018-10-17T10:33:42.901Z,17.59
2018-10-17T10:34:42.931Z,17.55
2018-10-17T10:35:42.867Z,17.73
2018-10-17T10:36:42.835Z,17.95
2018-10-17T10:37:42.841Z,18.13
2018-10-17T10:38:42.980Z,18.17
2018-10-17T10:39:42.841Z,18.25
2018-10-17T10:40:42.904Z,18.19
2018-10-17T10:41:42.838Z,18.21
2018-10-17T10:42:42.833Z,18.24
2018-10-17T10:43:42.852Z,18.49
2018-10-17T10:44:42.897Z,18.39
2018-10-17T10:45:42.953Z,18.27
2018-10-17T10:46:42.900Z,18.25
2018-10-17T10:47:42.898Z,18.43
2018-10-17T10:48:42.857Z,18.19
2018-10-17T10:49:42.875Z,18.13
2018-10-17T10:50:42.832Z,18.25
2018-10-17T10:51:42.891Z,18.37
2018-10-17T10:52:42.916Z,18.67
2018-10-17T10:53:42.833Z,18.62
2018-10-17T10:54:42.835Z,18.67
2018-10-17T10:55:42.839Z,18.68
2018-10-17T10:56:42.878Z,18.65
2018-10-17T10:57:42.916Z,18.54
2018-10-17T10:58:42.990Z,18.47
2018-10-17T10:59:42.930Z,18.70
2018-10-17T11:00:42.873Z,18.58
2018-10-17T11:01:42.921Z,18.49
2018-10-17T11:02:42.858Z,18.52
2018-10-17T11:03:42.882Z,18.58
2018-10-17T11:04:42.920Z,18.84
2018-10-17T11:05:43.078Z,19.08
2018-10-17T11:06:42.835Z,19.06
2018-10-17T11:07:42.868Z,19.24
2018-10-17T11:08:42.849Z,19.20
2018-10-17T11:09:42.837Z,19.11
2018-10-17T11:10:42.859Z,19.13
2018-10-17T11:11:42.848Z,19.33
2018-10-17T11:12:42.875Z,19.06
2018-10-17T11:13:42.900Z,18.87
2018-10-17T11:14:43.004Z,18.64
2018-10-17T11:15:42.836Z,18.68
2018-10-17T11:16:42.861Z,18.65
2018-10-17T11:17:42.842Z,18.86
2018-10-17T11:18:42.872Z,18.77
2018-10-17T11:19:42.846Z,18.98
2018-10-17T11:20:42.844Z,19.05
2018-10-17T11:21:42.916Z,19.31
2018-10-17T11:22:42.847Z,19.57
2018-10-17T11:23:42.850Z,19.38
2018-10-17T11:24:42.843Z,19.57
2018-10-17T11:25:42.855Z,19.39
2018-10-17T11:26:42.849Z,19.57
2018-10-17T11:27:42.868Z,19.84
2018-10-17T11:28:42.863Z,19.73
2018-10-17T11:29:42.842Z,19.60
2018-10-17T11:30:42.876Z,19.78
2018-10-17T11:31:42.855Z,19.75
2018-10-17T11:32:42.862Z,19.75
2018-10-17T11:33:42.851Z,19.72
2018-10-17T11:34:42.853Z,19.73
2018-10-17T11:35:42.855Z,19.80
2018-10-17T11:36:42.879Z,19.72
2018-10-17T11:37:42.910Z,19.51
2018-10-17T11:38:42.848Z,19.32
2018-10-17T11:39:42.880Z,19.24
2018-10-17T11:40:43.006Z,19.73
2018-10-17T11:41:42.860Z,19.63
2018-10-17T11:42:42.861Z,19.54
2018-10-17T11:43:42.871Z,19.54
2018-10-17T11:44:42.867Z,19.50
2018-10-17T11:45:42.868Z,19.35
2018-10-17T11:46:42.867Z,19.83
2018-10-17T11:47:42.915Z,19.93
2018-10-17T11:48:42.875Z,20.08
2018-10-17T11:49:42.895Z,19.95
2018-10-17T11:50:42.867Z,20.03
2018-10-17T11:51:42.882Z,20.06
2018-10-17T11:52:42.869Z,20.24
2018-10-17T11:53:42.908Z,20.10
2018-10-17T11:54:42.879Z,19.91
2018-10-17T11:55:42.879Z,19.98
2018-10-17T11:56:42.877Z,19.75
2018-10-17T11:57:42.900Z,19.75
2018-10-17T11:58:42.899Z,20.09
2018-10-17T11:59:42.989Z,20.13
2018-10-17T12:00:42.885Z,20.41
2018-10-17T12:01:42.893Z,20.49
2018-10-17T12:02:42.885Z,20.34
2018-10-17T12:03:43.073Z,20.35
2018-10-17T12:04:43.104Z,20.09
2018-10-17T12:05:43.020Z,20.24
2018-10-17T12:06:42.914Z,20.23
2018-10-17T12:07:42.913Z,20.41
2018-10-17T12:08:42.898Z,20.49
2018-10-17T12:09:42.926Z,20.59
2018-10-17T12:10:42.895Z,20.58
2018-10-17T12:11:42.932Z,20.35
2018-10-17T12:12:42.896Z,20.12
2018-10-17T12:13:42.936Z,20.20
2018-10-17T12:14:42.957Z,20.24
2018-10-17T12:15:42.909Z,20.56
2018-10-17T12:16:42.897Z,20.51
2018-10-17T12:19:04.041Z,20.62
2018-10-17T12:20:03.992Z,20.59
2018-10-17T12:21:04.049Z,20.61
2018-10-17T12:22:04.056Z,20.65
2018-10-17T12:23:03.963Z,20.74
2018-10-17T12:24:04.048Z,20.58
2018-10-17T12:25:03.982Z,20.69
2018-10-17T12:26:04.011Z,20.74
2018-10-17T12:27:04.047Z,20.74
2018-10-17T12:28:04.081Z,20.74
2018-10-17T12:29:04.012Z,20.51
2018-10-17T12:30:04.070Z,20.35
2018-10-17T12:31:04.008Z,20.30
2018-10-17T12:32:03.968Z,20.51
2018-10-17T12:33:04.016Z,20.59
2018-10-17T12:34:04.009Z,20.59
2018-10-17T12:35:04.023Z,20.54
2018-10-17T12:36:03.993Z,20.49
2018-10-17T12:37:04.025Z,20.58
2018-10-17T12:38:04.032Z,20.71
2018-10-17T12:39:04.097Z,20.54
2018-10-17T12:40:04.137Z,20.69
2018-10-17T12:41:04.183Z,21.05
2018-10-17T12:42:04.003Z,20.89
2018-10-17T12:43:04.000Z,20.90
2018-10-17T12:44:04.077Z,20.95
2018-10-17T12:45:04.089Z,20.93
2018-10-17T12:46:04.036Z,21.29
2018-10-17T12:47:04.146Z,21.36
2018-10-17T12:48:04.065Z,21.26
2018-10-17T12:49:04.041Z,21.19
2018-10-17T12:50:04.035Z,21.30
2018-10-17T12:51:04.044Z,21.38
2018-10-17T12:52:04.141Z,21.51
2018-10-17T12:53:04.276Z,21.36
2018-10-17T12:54:04.036Z,21.42
2018-10-17T12:55:04.070Z,21.36
2018-10-17T12:56:04.056Z,21.38
2018-10-17T12:57:04.028Z,21.35
2018-10-17T12:58:04.063Z,21.30
2018-10-17T12:59:04.185Z,21.59
2018-10-17T13:00:04.069Z,21.67
2018-10-17T13:01:04.136Z,21.53
2018-10-17T13:02:04.052Z,21.51
2018-10-17T13:03:04.039Z,21.50
2018-10-17T13:04:04.047Z,21.41
2018-10-17T13:05:04.149Z,21.24
2018-10-17T13:06:04.101Z,21.30
2018-10-17T13:07:04.143Z,21.21
2018-10-17T13:08:04.069Z,21.35
2018-10-17T13:09:04.075Z,21.36
2018-10-17T13:10:04.111Z,21.50
2018-10-17T13:11:04.071Z,21.44
2018-10-17T13:12:04.061Z,21.72
2018-10-17T13:13:04.098Z,21.88
2018-10-17T13:14:04.065Z,21.75
2018-10-17T13:15:04.233Z,21.64